Time;durP1;ratioP1;P1;durP2;ratioP2;P2;SDS_P1;SDS_P2;PMS_P1;PMS_P2;Temp;Humidity;BMP_temperature;BMP_pressure;BME280_temperature;BME280_humidity;BME280_pressure;Samples;Min_cycle;Max_cycle;Signal;HPM_P1;HPM_P2
2021/12/30 00:00:19;;;;;;;182.43;141.68;;;20.60;51.70;;;;;;4363511;60;21127;-33
2021/12/30 00:05:20;;;;;;;180.98;145.52;;;20.60;51.70;;;;;;4338767;64;21490;-34
2021/12/30 00:10:24;;;;;;;184.98;145.50;;;20.60;51.70;;;;;;4339003;64;21059;-33
2021/12/30 00:15:25;;;;;;;181.02;143.87;;;20.60;51.70;;;;;;4381119;60;21063;-33
2021/12/30 00:20:26;;;;;;;186.07;144.43;;;20.60;51.60;;;;;;4342209;60;21099;-34
2021/12/30 00:25:27;;;;;;;184.95;143.93;;;20.60;51.60;;;;;;4338309;64;21127;-33
2021/12/30 00:30:28;;;;;;;176.98;138.82;;;20.60;51.60;;;;;;4353034;60;21043;-36
2021/12/30 00:35:30;;;;;;;182.07;145.23;;;20.60;51.60;;;;;;4370501;60;21064;-35
2021/12/30 00:40:31;;;;;;;172.30;138.02;;;20.60;51.60;;;;;;4348217;60;21128;-33
2021/12/30 00:45:34;;;;;;;178.43;138.90;;;20.60;51.60;;;;;;4355810;60;21536;-32
2021/12/30 00:50:38;;;;;;;173.02;136.20;;;20.60;51.50;;;;;;4351602;60;21087;-35
2021/12/30 00:55:41;;;;;;;167.90;133.27;;;20.60;51.50;;;;;;4348181;60;21152;-35
2021/12/30 01:00:44;;;;;;;174.73;137.68;;;20.60;51.50;;;;;;4339252;64;21130;-37
2021/12/30 01:05:46;;;;;;;168.30;134.32;;;20.60;51.50;;;;;;4418769;60;21072;-32
2021/12/30 01:10:47;;;;;;;174.35;137.73;;;20.60;51.50;;;;;;4339069;60;21075;-35
2021/12/30 01:16:04;;;;;;;167.73;133.82;;;20.60;51.50;;;;;;4339520;64;21531;-37
2021/12/30 01:21:07;;;;;;;;;;;20.60;51.40;;;;;;4342148;64;21657;-33
2021/12/30 01:26:09;;;;;;;163.37;130.73;;;20.60;51.40;;;;;;4402850;60;20128;-36
2021/12/30 01:31:10;;;;;;;161.68;130.40;;;20.60;51.40;;;;;;4360847;60;21043;-36
2021/12/30 01:36:12;;;;;;;161.75;130.15;;;20.60;51.30;;;;;;4449871;60;21082;-36
2021/12/30 01:41:14;;;;;;;162.23;128.77;;;20.60;51.40;;;;;;4350933;60;21189;-34
2021/12/30 01:46:15;;;;;;;160.73;127.00;;;20.60;51.30;;;;;;4358010;60;21109;-34
2021/12/30 01:51:16;;;;;;;154.98;122.15;;;20.60;51.30;;;;;;4375598;60;21639;-36
2021/12/30 01:56:17;;;;;;;161.93;128.30;;;20.60;51.30;;;;;;4348525;60;21128;-30
2021/12/30 02:01:18;;;;;;;156.70;124.07;;;20.50;51.20;;;;;;4343017;60;21067;-35
2021/12/30 02:06:19;;;;;;;162.75;126.43;;;20.60;51.30;;;;;;4356679;60;21051;-33
2021/12/30 02:11:21;;;;;;;158.12;126.57;;;20.60;51.30;;;;;;4339141;64;21502;-35
2021/12/30 02:16:22;;;;;;;161.20;127.90;;;20.60;51.30;;;;;;4356693;60;21083;-30
2021/12/30 02:21:23;;;;;;;150.12;121.20;;;20.50;51.20;;;;;;4344860;60;21056;-35
2021/12/30 02:26:25;;;;;;;158.40;125.65;;;20.50;51.20;;;;;;4348669;60;21063;-29
2021/12/30 02:31:28;;;;;;;153.48;122.37;;;20.50;51.10;;;;;;4339205;61;21054;-34
2021/12/30 02:36:32;;;;;;;145.18;117.22;;;20.50;51.10;;;;;;4364539;60;21108;-36
2021/12/30 02:41:35;;;;;;;153.73;120.72;;;20.50;51.10;;;;;;4344180;60;21584;-36
2021/12/30 02:46:39;;;;;;;146.25;117.15;;;20.50;51.10;;;;;;4350189;60;21536;-35
2021/12/30 02:51:40;;;;;;;148.60;118.35;;;20.50;51.10;;;;;;4343655;60;21533;-26
2021/12/30 02:56:46;;;;;;;147.48;117.32;;;20.50;51.10;;;;;;4376633;60;21059;-37
2021/12/30 03:01:49;;;;;;;141.30;113.03;;;20.50;51.00;;;;;;4341087;60;21591;-31
2021/12/30 03:06:50;;;;;;;149.30;119.50;;;20.50;51.00;;;;;;4363849;60;21610;-30
2021/12/30 03:11:51;;;;;;;149.00;118.43;;;20.50;51.00;;;;;;4374492;60;21100;-35
2021/12/30 03:16:52;;;;;;;142.13;113.60;;;20.50;51.00;;;;;;4346084;60;21394;-31
2021/12/30 03:21:55;;;;;;;141.43;113.93;;;20.50;51.00;;;;;;4352998;60;21566;-36
2021/12/30 03:26:56;;;;;;;148.87;118.18;;;20.50;51.00;;;;;;4384751;60;21549;-34
2021/12/30 03:31:57;;;;;;;145.65;115.28;;;20.50;51.00;;;;;;4340259;60;21084;-37
2021/12/30 03:36:58;;;;;;;140.88;113.15;;;20.50;51.10;;;;;;4376215;60;21548;-37
2021/12/30 03:41:59;;;;;;;143.75;114.70;;;20.50;51.00;;;;;;4377395;60;21063;-37
2021/12/30 03:47:00;;;;;;;140.50;112.35;;;20.50;50.90;;;;;;4362294;60;21054;-34
2021/12/30 03:52:01;;;;;;;137.37;111.45;;;20.50;50.90;;;;;;4349221;60;21103;-36
2021/12/30 03:57:02;;;;;;;141.12;111.18;;;20.50;50.90;;;;;;4350192;60;21067;-36
2021/12/30 04:02:04;;;;;;;139.25;109.20;;;20.50;50.90;;;;;;4385022;60;21068;-34
2021/12/30 04:07:05;;;;;;;135.43;108.80;;;20.50;50.90;;;;;;4355552;60;21067;-37
2021/12/30 04:12:06;;;;;;;130.80;106.75;;;20.50;50.80;;;;;;4368154;60;21052;-35
2021/12/30 04:17:08;;;;;;;131.35;106.28;;;20.50;50.90;;;;;;4348335;60;21117;-36
2021/12/30 04:22:09;;;;;;;136.25;107.50;;;20.50;50.90;;;;;;4358443;60;21067;-34
2021/12/30 04:27:10;;;;;;;133.63;107.60;;;20.50;50.90;;;;;;4339098;64;21534;-34
2021/12/30 04:32:11;;;;;;;135.90;107.65;;;20.50;50.90;;;;;;4339698;60;21060;-36
2021/12/30 04:37:12;;;;;;;130.90;104.12;;;20.50;50.80;;;;;;4339364;61;21599;-36
2021/12/30 04:42:13;;;;;;;132.27;106.78;;;20.40;50.80;;;;;;4346613;60;21088;-36
2021/12/30 04:47:15;;;;;;;130.87;105.97;;;20.50;50.80;;;;;;4339469;60;21912;-36
2021/12/30 04:52:16;;;;;;;129.00;102.43;;;20.50;50.80;;;;;;4346591;60;21083;-37
2021/12/30 04:57:17;;;;;;;126.87;102.57;;;20.50;50.80;;;;;;4360703;60;21055;-36
2021/12/30 05:02:18;;;;;;;127.00;99.07;;;20.50;50.80;;;;;;4359213;60;21076;-35
2021/12/30 05:07:19;;;;;;;129.05;103.43;;;20.40;50.80;;;;;;4352474;60;21581;-34
2021/12/30 05:12:21;;;;;;;126.38;98.75;;;20.40;50.80;;;;;;4338977;64;21158;-37
2021/12/30 05:17:23;;;;;;;126.03;99.85;;;20.40;50.80;;;;;;4345099;60;21799;-36
2021/12/30 05:22:24;;;;;;;131.93;103.40;;;20.40;50.90;;;;;;4348910;60;21526;-36
2021/12/30 05:27:24;;;;;;;121.10;97.15;;;20.40;50.90;;;;;;4364169;60;21059;-34
2021/12/30 05:32:25;;;;;;;121.87;97.82;;;20.50;51.00;;;;;;4339378;64;21631;-37
2021/12/30 05:37:26;;;;;;;124.22;97.90;;;20.40;50.90;;;;;;4368597;60;21119;-38
2021/12/30 05:42:27;;;;;;;126.15;98.53;;;20.40;51.50;;;;;;4356728;60;21075;-36
2021/12/30 05:47:28;;;;;;;125.85;97.45;;;20.40;50.90;;;;;;4377284;60;21147;-36
2021/12/30 05:52:29;;;;;;;116.35;92.35;;;20.40;50.90;;;;;;4339620;61;21581;-37
2021/12/30 05:57:30;;;;;;;122.35;97.40;;;20.40;51.00;;;;;;4338487;62;21180;-38
2021/12/30 06:02:31;;;;;;;124.18;97.40;;;20.40;51.00;;;;;;4351368;60;21629;-34
2021/12/30 06:07:32;;;;;;;119.07;95.60;;;20.40;51.00;;;;;;4347389;60;21100;-34
2021/12/30 06:12:33;;;;;;;122.50;96.20;;;20.40;51.00;;;;;;4354548;60;21127;-35
2021/12/30 06:17:35;;;;;;;121.97;96.85;;;20.40;51.00;;;;;;4348848;60;21107;-36
2021/12/30 06:22:36;;;;;;;115.72;91.40;;;20.40;51.00;;;;;;4371950;60;21584;-34
2021/12/30 06:27:37;;;;;;;122.28;95.57;;;20.40;51.30;;;;;;4344640;60;21084;-34
2021/12/30 06:32:38;;;;;;;114.97;90.35;;;20.40;51.00;;;;;;4358316;60;21087;-34
2021/12/30 06:37:40;;;;;;;116.22;93.28;;;20.40;51.00;;;;;;4338836;64;21059;-36
2021/12/30 06:42:43;;;;;;;114.88;90.03;;;20.40;51.10;;;;;;4338575;64;21602;-34
2021/12/30 06:47:44;;;;;;;114.43;90.97;;;20.40;51.00;;;;;;4365473;60;22160;-36
2021/12/30 06:52:46;;;;;;;113.25;90.62;;;20.40;51.00;;;;;;4379292;60;21609;-35
2021/12/30 06:57:47;;;;;;;110.82;88.20;;;20.40;51.00;;;;;;4339224;60;21444;-30
2021/12/30 07:02:48;;;;;;;112.80;90.60;;;20.40;51.00;;;;;;4352409;60;21094;-35
2021/12/30 07:07:49;;;;;;;114.95;93.18;;;20.40;51.00;;;;;;4346375;60;21606;-34
2021/12/30 07:12:50;;;;;;;114.25;90.65;;;20.40;50.90;;;;;;4361987;60;21526;-35
2021/12/30 07:17:50;;;;;;;113.82;91.50;;;20.40;51.00;;;;;;4354307;60;21084;-34
2021/12/30 07:22:51;;;;;;;113.62;89.85;;;20.40;51.00;;;;;;4398100;60;21130;-34
2021/12/30 07:27:54;;;;;;;107.03;84.93;;;20.40;51.00;;;;;;4361656;60;21556;-36
2021/12/30 07:32:56;;;;;;;116.10;90.40;;;20.40;51.00;;;;;;4339101;64;21595;-35
2021/12/30 07:37:56;;;;;;;116.40;92.37;;;20.40;51.60;;;;;;4353221;60;21040;-35
2021/12/30 07:42:57;;;;;;;114.57;92.12;;;20.40;51.00;;;;;;4339644;60;21650;-34
2021/12/30 07:47:58;;;;;;;116.25;91.32;;;20.40;51.00;;;;;;4364946;60;21063;-35
2021/12/30 07:52:59;;;;;;;117.85;92.57;;;20.40;51.00;;;;;;4346093;60;21075;-35
2021/12/30 07:58:00;;;;;;;114.90;91.80;;;20.40;51.00;;;;;;4344112;60;21540;-36
2021/12/30 08:03:01;;;;;;;114.40;89.05;;;20.40;51.00;;;;;;4344124;60;21104;-34
2021/12/30 08:08:02;;;;;;;112.72;92.37;;;20.40;51.00;;;;;;4387541;60;21156;-36
2021/12/30 08:13:03;;;;;;;118.57;92.75;;;20.40;50.90;;;;;;4338949;60;21146;-34
2021/12/30 08:18:04;;;;;;;113.05;86.07;;;20.40;51.10;;;;;;4352972;60;21208;-28
2021/12/30 08:23:05;;;;;;;112.78;87.12;;;20.50;51.60;;;;;;4339150;64;21070;-31
2021/12/30 08:28:07;;;;;;;112.40;89.57;;;20.60;51.90;;;;;;4340164;60;21067;-33
2021/12/30 08:33:08;;;;;;;107.43;85.30;;;20.60;51.90;;;;;;4342926;60;21518;-33
2021/12/30 08:38:10;;;;;;;110.95;85.38;;;20.60;52.10;;;;;;4344020;60;21215;-33
2021/12/30 08:43:13;;;;;;;114.12;90.50;;;20.70;52.20;;;;;;4351173;60;21601;-34
2021/12/30 08:48:15;;;;;;;112.90;89.87;;;20.70;52.40;;;;;;4347900;60;21557;-32
2021/12/30 08:53:16;;;;;;;110.72;87.72;;;20.70;52.40;;;;;;4349335;60;21048;-33
2021/12/30 08:58:17;;;;;;;110.50;87.62;;;20.70;52.60;;;;;;4352787;60;21127;-32
2021/12/30 09:03:17;;;;;;;113.28;90.87;;;20.70;52.80;;;;;;4362392;60;21088;-30
2021/12/30 09:08:18;;;;;;;117.32;92.90;;;20.80;52.90;;;;;;4339439;64;21506;-36
2021/12/30 09:13:20;;;;;;;117.13;88.97;;;20.80;52.70;;;;;;4360253;60;21143;-34
2021/12/30 09:18:21;;;;;;;118.50;93.00;;;20.80;52.60;;;;;;4349375;60;21538;-34
2021/12/30 09:23:22;;;;;;;117.70;90.05;;;20.80;52.60;;;;;;4356762;60;21067;-35
2021/12/30 09:28:24;;;;;;;118.82;95.55;;;20.80;52.50;;;;;;4342005;60;21541;-36
2021/12/30 09:33:25;;;;;;;113.82;91.10;;;20.80;52.50;;;;;;4343824;60;21147;-37
2021/12/30 09:38:27;;;;;;;116.18;89.10;;;20.80;52.50;;;;;;4354723;60;21059;-35
2021/12/30 09:43:28;;;;;;;114.12;90.45;;;20.80;52.40;;;;;;4351152;60;21139;-35
2021/12/30 09:48:29;;;;;;;112.97;84.40;;;20.80;52.30;;;;;;4363273;60;21569;-36
2021/12/30 09:53:30;;;;;;;121.57;96.97;;;20.80;52.30;;;;;;4340883;60;21638;-37
2021/12/30 09:58:31;;;;;;;127.25;97.35;;;20.80;52.30;;;;;;4383053;60;21115;-35
2021/12/30 10:03:35;;;;;;;131.45;102.12;;;20.70;52.20;;;;;;4338868;64;21056;-35
2021/12/30 10:08:40;;;;;;;138.52;103.32;;;20.80;52.20;;;;;;4355864;60;21521;-38
2021/12/30 10:13:53;;;;;;;126.38;97.12;;;20.80;52.30;;;;;;4342975;60;21545;-36
2021/12/30 10:19:07;;;;;;;142.87;108.18;;;20.80;52.40;;;;;;4355933;60;21076;-36
2021/12/30 10:24:11;;;;;;;148.73;110.78;;;20.80;52.50;;;;;;4339829;60;21152;-35
2021/12/30 10:29:11;;;;;;;142.48;110.05;;;20.80;52.60;;;;;;4356330;60;21608;-33
2021/12/30 10:34:12;;;;;;;147.90;112.12;;;20.90;52.90;;;;;;4338544;64;21059;-36
2021/12/30 10:39:28;;;;;;;144.02;110.60;;;20.90;53.20;;;;;;4339075;64;21462;-36
2021/12/30 10:48:01;;;;;;;148.98;109.47;;;21.00;53.50;;;;;;4344281;60;21189;-34
2021/12/30 10:53:02;;;;;;;149.23;112.65;;;21.00;53.70;;;;;;4372916;60;21593;-37
2021/12/30 10:58:24;;;;;;;150.73;112.80;;;21.10;54.00;;;;;;4373504;60;21517;-35
2021/12/30 11:03:25;;;;;;;148.55;114.72;;;21.10;54.10;;;;;;4354004;60;21629;-32
2021/12/30 11:08:28;;;;;;;149.68;113.78;;;21.20;54.30;;;;;;4359871;60;22347;-35
2021/12/30 11:13:30;;;;;;;155.18;114.00;;;21.20;54.40;;;;;;4370188;60;21605;-34
2021/12/30 11:18:41;;;;;;;150.87;114.78;;;21.20;54.60;;;;;;4341431;60;21630;-37
2021/12/30 11:23:42;;;;;;;150.90;113.88;;;21.30;55.40;;;;;;4377165;60;21554;-33
2021/12/30 11:28:43;;;;;;;153.15;113.88;;;21.30;55.60;;;;;;4348674;60;21051;-31
2021/12/30 11:33:45;;;;;;;147.30;115.85;;;21.30;55.10;;;;;;4383949;60;21537;-38
2021/12/30 11:38:46;;;;;;;151.73;117.00;;;21.30;55.20;;;;;;4345686;60;21093;-35
2021/12/30 11:43:49;;;;;;;151.15;111.45;;;21.40;55.40;;;;;;4342484;60;21087;-31
2021/12/30 11:48:57;;;;;;;149.07;114.12;;;21.40;55.60;;;;;;4344462;60;21187;-35
2021/12/30 11:54:40;;;;;;;154.38;118.13;;;21.40;55.60;;;;;;4341777;60;21502;-32
2021/12/30 11:59:41;;;;;;;153.27;119.68;;;21.40;55.80;;;;;;4357809;60;21213;-33
2021/12/30 12:04:42;;;;;;;150.45;116.45;;;21.40;56.00;;;;;;4344444;60;21589;-32
2021/12/30 12:09:43;;;;;;;150.68;116.82;;;21.50;56.20;;;;;;4338120;64;21146;-36
2021/12/30 12:15:03;;;;;;;167.73;124.25;;;21.50;56.30;;;;;;4364853;60;21064;-34
2021/12/30 12:20:25;;;;;;;161.75;124.12;;;21.50;56.10;;;;;;4337871;64;21119;-33
2021/12/30 12:25:29;;;;;;;156.20;118.20;;;21.40;56.00;;;;;;4341713;60;21553;-34
2021/12/30 12:30:33;;;;;;;163.20;123.38;;;21.40;56.00;;;;;;4360978;60;21087;-34
2021/12/30 12:35:40;;;;;;;162.98;121.00;;;21.40;55.90;;;;;;4348286;60;21056;-33
2021/12/30 12:40:51;;;;;;;156.07;123.33;;;21.30;55.80;;;;;;4377658;60;21138;-34
2021/12/30 12:46:03;;;;;;;152.87;118.00;;;21.30;55.70;;;;;;4338254;60;21083;-34
2021/12/30 12:51:15;;;;;;;164.55;125.25;;;21.30;55.60;;;;;;4376212;60;21729;-25
2021/12/30 12:56:32;;;;;;;166.37;127.70;;;21.30;55.50;;;;;;4355008;60;21068;-32
2021/12/30 13:01:33;;;;;;;171.07;130.50;;;21.30;55.50;;;;;;4350115;60;21099;-34
2021/12/30 13:06:44;;;;;;;165.02;127.78;;;21.40;55.80;;;;;;4339649;60;21067;-37
2021/12/30 13:11:47;;;;;;;174.25;129.38;;;21.40;55.90;;;;;;4338945;60;21084;-33
2021/12/30 13:16:55;;;;;;;172.05;131.35;;;21.40;56.10;;;;;;4344558;60;21115;-35
2021/12/30 13:22:06;;;;;;;180.75;133.80;;;21.40;56.40;;;;;;4340191;60;21617;-35
2021/12/30 13:27:42;;;;;;;158.52;121.62;;;21.40;56.30;;;;;;4339741;60;21130;-35
2021/12/30 13:32:47;;;;;;;170.43;126.15;;;21.40;56.40;;;;;;4363795;60;21570;-34
2021/12/30 13:38:24;;;;;;;177.62;132.95;;;21.40;56.50;;;;;;4397980;60;21550;-35
2021/12/30 13:43:25;;;;;;;173.40;133.18;;;21.40;56.60;;;;;;4350263;60;21104;-37
2021/12/30 13:48:34;;;;;;;175.93;132.20;;;21.40;56.40;;;;;;4362680;60;21515;-36
2021/12/30 13:53:37;;;;;;;174.45;135.45;;;21.40;56.40;;;;;;4358239;60;21622;-36
2021/12/30 13:58:43;;;;;;;178.00;136.05;;;21.30;56.20;;;;;;4354302;60;21119;-35
2021/12/30 14:03:47;;;;;;;175.75;134.85;;;21.30;56.20;;;;;;4352353;60;21095;-36
2021/12/30 14:09:00;;;;;;;179.30;135.23;;;21.30;56.00;;;;;;4349579;60;21048;-36
2021/12/30 14:14:04;;;;;;;173.20;136.10;;;21.30;55.90;;;;;;4338523;64;21104;-35
2021/12/30 14:19:05;;;;;;;174.07;134.90;;;21.30;55.80;;;;;;4338424;64;21163;-36
2021/12/30 14:24:20;;;;;;;178.43;133.63;;;21.30;55.70;;;;;;4363453;60;21104;-37
2021/12/30 14:29:25;;;;;;;174.98;137.00;;;21.30;55.60;;;;;;4339230;64;21569;-33
2021/12/30 14:34:38;;;;;;;169.70;130.50;;;21.30;55.60;;;;;;4356035;60;21621;-35
2021/12/30 14:40:16;;;;;;;176.82;134.73;;;21.30;55.60;;;;;;4373487;60;22421;-35
2021/12/30 14:45:18;;;;;;;170.52;134.50;;;21.30;55.70;;;;;;4346502;60;21079;-33
2021/12/30 14:50:24;;;;;;;175.35;133.75;;;21.30;55.80;;;;;;4346935;60;21498;-34
2021/12/30 14:55:34;;;;;;;178.13;134.43;;;21.30;55.90;;;;;;4339724;61;21106;-33
2021/12/30 15:00:44;;;;;;;182.35;141.00;;;21.30;56.00;;;;;;4352742;60;21651;-34
2021/12/30 15:05:45;;;;;;;189.65;143.70;;;21.30;56.30;;;;;;4355953;60;21120;-35
2021/12/30 15:10:46;;;;;;;176.45;134.70;;;21.30;56.00;;;;;;4339400;64;21087;-35
2021/12/30 15:15:47;;;;;;;181.87;142.00;;;21.30;55.90;;;;;;4352034;60;21148;-37
2021/12/30 15:20:48;;;;;;;189.40;144.68;;;21.30;55.80;;;;;;4340834;60;21091;-34
2021/12/30 15:25:49;;;;;;;183.43;141.93;;;21.30;55.70;;;;;;4351363;60;21653;-35
2021/12/30 15:30:51;;;;;;;192.85;146.25;;;21.30;55.70;;;;;;4338460;64;21223;-37
2021/12/30 15:35:52;;;;;;;186.23;142.52;;;21.30;55.60;;;;;;4338907;64;21088;-35
2021/12/30 15:40:53;;;;;;;181.75;138.93;;;21.30;55.60;;;;;;4352130;60;21541;-37
2021/12/30 15:45:54;;;;;;;185.68;140.88;;;21.30;55.60;;;;;;4337514;64;21079;-36
2021/12/30 15:50:56;;;;;;;177.70;138.55;;;21.30;55.70;;;;;;4338799;61;21690;-33
2021/12/30 15:55:57;;;;;;;188.32;149.07;;;21.30;55.70;;;;;;4350236;60;21127;-34
2021/12/30 16:00:59;;;;;;;197.30;151.52;;;21.30;55.80;;;;;;4366950;60;21585;-36
2021/12/30 16:06:00;;;;;;;192.65;146.40;;;21.30;55.90;;;;;;4338023;64;21096;-35
2021/12/30 16:11:01;;;;;;;196.65;145.90;;;21.20;55.80;;;;;;4339442;64;21552;-37
2021/12/30 16:16:05;;;;;;;205.98;156.27;;;21.20;55.80;;;;;;4338441;64;21092;-36
2021/12/30 16:21:06;;;;;;;202.90;150.77;;;21.20;56.40;;;;;;4355352;60;21601;-32
2021/12/30 16:26:07;;;;;;;196.43;151.25;;;21.10;55.60;;;;;;4350765;60;21055;-33
2021/12/30 16:31:09;;;;;;;196.98;150.87;;;21.10;55.60;;;;;;4346247;60;21083;-36
2021/12/30 16:36:09;;;;;;;206.85;156.50;;;21.10;55.60;;;;;;4346396;60;21064;-38
2021/12/30 16:41:11;;;;;;;206.52;156.60;;;21.10;55.60;;;;;;4347150;60;21141;-36
2021/12/30 16:46:12;;;;;;;203.75;156.05;;;21.10;55.60;;;;;;4338926;60;21128;-36
2021/12/30 16:51:13;;;;;;;210.75;158.35;;;21.00;55.50;;;;;;4353989;60;21290;-37
2021/12/30 16:56:16;;;;;;;207.68;159.60;;;21.00;55.50;;;;;;4349418;60;21071;-35
2021/12/30 17:01:17;;;;;;;205.65;159.48;;;21.00;55.50;;;;;;4347830;60;21602;-38
2021/12/30 17:06:20;;;;;;;208.02;159.95;;;21.00;55.40;;;;;;4365696;60;21056;-36
2021/12/30 17:11:21;;;;;;;211.10;158.93;;;21.00;55.40;;;;;;4341515;60;21544;-34
2021/12/30 17:16:22;;;;;;;211.30;159.70;;;21.00;55.30;;;;;;4355743;60;21103;-36
2021/12/30 17:21:23;;;;;;;205.27;156.95;;;20.90;55.30;;;;;;4348852;60;21601;-35
2021/12/30 17:26:25;;;;;;;213.18;164.25;;;20.90;55.30;;;;;;4338484;61;21066;-33
2021/12/30 17:31:26;;;;;;;217.27;166.88;;;20.90;55.20;;;;;;4338760;64;21108;-36
2021/12/30 17:36:28;;;;;;;214.73;162.52;;;20.90;55.20;;;;;;4339034;64;21525;-35
2021/12/30 17:41:28;;;;;;;217.73;163.37;;;20.90;55.20;;;;;;4340288;60;21084;-32
2021/12/30 17:46:32;;;;;;;218.05;167.02;;;20.90;55.10;;;;;;4369564;60;21068;-34
2021/12/30 17:51:32;;;;;;;220.88;168.85;;;20.90;55.10;;;;;;4344466;60;21565;-35
2021/12/30 17:56:34;;;;;;;214.70;163.65;;;20.90;55.10;;;;;;4358969;60;21127;-36
2021/12/30 18:01:35;;;;;;;216.48;164.60;;;20.90;55.10;;;;;;4345314;60;21181;-32
2021/12/30 18:06:36;;;;;;;217.85;166.65;;;20.90;55.10;;;;;;4338478;61;21529;-34
2021/12/30 18:11:39;;;;;;;221.02;168.45;;;20.90;55.00;;;;;;4347861;60;21044;-34
2021/12/30 18:16:39;;;;;;;221.98;169.95;;;20.90;55.00;;;;;;4349699;60;21087;-33
2021/12/30 18:21:40;;;;;;;225.62;174.95;;;20.90;55.50;;;;;;4338900;64;21518;-36
2021/12/30 18:26:41;;;;;;;219.87;172.10;;;20.90;54.90;;;;;;4338986;64;21132;-35
2021/12/30 18:31:44;;;;;;;217.85;169.85;;;20.90;54.90;;;;;;4351216;60;21579;-35
2021/12/30 18:36:45;;;;;;;219.32;170.52;;;20.90;55.50;;;;;;4339786;60;21650;-35
2021/12/30 18:41:46;;;;;;;223.15;172.55;;;20.80;54.80;;;;;;4338117;61;21047;-36
2021/12/30 18:46:48;;;;;;;225.00;171.43;;;20.80;54.80;;;;;;4358512;60;21190;-37
2021/12/30 18:51:50;;;;;;;218.10;171.60;;;20.80;54.70;;;;;;4358280;60;21541;-36
2021/12/30 18:56:51;;;;;;;223.43;171.32;;;20.80;54.70;;;;;;4338741;64;21070;-32
2021/12/30 19:01:52;;;;;;;226.35;173.43;;;20.80;54.70;;;;;;4359554;60;21067;-34
2021/12/30 19:06:54;;;;;;;222.32;173.77;;;20.80;54.70;;;;;;4344170;60;21525;-35
2021/12/30 19:12:05;;;;;;;220.60;170.95;;;20.80;54.60;;;;;;4339617;64;22129;-35
2021/12/30 19:17:07;;;;;;;222.00;174.07;;;20.80;54.60;;;;;;4360789;60;21556;-35
2021/12/30 19:22:07;;;;;;;224.48;175.20;;;20.80;54.60;;;;;;4342425;60;21056;-36
2021/12/30 19:27:08;;;;;;;229.73;176.37;;;20.80;54.60;;;;;;4373942;60;21694;-37
2021/12/30 19:32:09;;;;;;;222.45;174.57;;;20.80;54.60;;;;;;4386807;60;21047;-35
2021/12/30 19:37:17;;;;;;;214.43;169.68;;;20.80;54.50;;;;;;4340429;60;21051;-36
2021/12/30 19:42:20;;;;;;;217.93;169.77;;;20.80;54.50;;;;;;4338935;64;21167;-34
2021/12/30 19:47:21;;;;;;;224.70;174.27;;;20.80;54.50;;;;;;4358206;60;21079;-32
2021/12/30 19:52:21;;;;;;;224.12;175.57;;;20.80;54.50;;;;;;4362737;60;21605;-35
2021/12/30 19:57:23;;;;;;;219.32;170.80;;;20.80;54.40;;;;;;4373324;60;21111;-33
2021/12/30 20:02:24;;;;;;;217.48;170.43;;;20.80;54.40;;;;;;4350315;60;21095;-34
2021/12/30 20:07:25;;;;;;;228.45;178.25;;;20.80;54.10;;;;;;4352630;60;21126;-33
2021/12/30 20:12:25;;;;;;;226.48;178.73;;;20.80;54.40;;;;;;4339044;62;21192;-35
2021/12/30 20:17:26;;;;;;;218.07;173.43;;;20.80;54.30;;;;;;4341893;60;21119;-36
2021/12/30 20:22:27;;;;;;;223.45;173.45;;;20.70;54.30;;;;;;4352798;60;21059;-34
2021/12/30 20:27:28;;;;;;;227.20;176.85;;;20.80;54.30;;;;;;4370480;60;21080;-35
2021/12/30 20:32:32;;;;;;;224.50;177.95;;;20.80;54.30;;;;;;4372954;60;21083;-33
2021/12/30 20:37:34;;;;;;;221.02;176.87;;;20.80;54.20;;;;;;4373954;60;21120;-35
2021/12/30 20:42:36;;;;;;;217.43;170.40;;;20.80;54.20;;;;;;4390873;60;21052;-34
2021/12/30 20:47:40;;;;;;;217.90;172.87;;;20.80;54.20;;;;;;4356929;60;21618;-35
2021/12/30 20:52:42;;;;;;;212.95;165.55;;;20.80;54.10;;;;;;4361119;60;21108;-36
2021/12/30 20:57:44;;;;;;;220.37;174.35;;;20.80;54.10;;;;;;4358215;60;21131;-35
2021/12/30 21:02:46;;;;;;;226.00;178.85;;;20.70;54.00;;;;;;4375743;60;21135;-37
2021/12/30 21:07:47;;;;;;;214.57;169.13;;;20.70;54.00;;;;;;4348465;60;21059;-35
2021/12/30 21:12:51;;;;;;;223.50;174.77;;;20.80;54.10;;;;;;4363932;60;21052;-36
2021/12/30 21:17:52;;;;;;;216.45;168.93;;;20.70;54.00;;;;;;4350084;60;21582;-34
2021/12/30 21:22:55;;;;;;;225.10;176.05;;;20.70;53.90;;;;;;4357510;60;21163;-34
2021/12/30 21:27:58;;;;;;;215.50;170.95;;;20.70;53.90;;;;;;4398279;60;21901;-36
2021/12/30 21:33:02;;;;;;;219.95;175.62;;;20.70;53.80;;;;;;4353070;60;21064;-37
2021/12/30 21:38:07;;;;;;;217.93;173.70;;;20.70;53.80;;;;;;4369076;60;21554;-34
2021/12/30 21:43:08;;;;;;;223.35;173.23;;;20.70;53.70;;;;;;4352129;60;21168;-37
2021/12/30 21:48:10;;;;;;;219.62;169.68;;;20.70;53.70;;;;;;4342724;60;21051;-36
2021/12/30 21:53:11;;;;;;;221.90;175.15;;;20.70;53.70;;;;;;4338942;64;21103;-35
2021/12/30 21:58:12;;;;;;;217.48;166.30;;;20.70;53.70;;;;;;4342938;60;21593;-35
2021/12/30 22:03:14;;;;;;;212.23;164.77;;;20.70;53.60;;;;;;4346269;60;21040;-35
2021/12/30 22:08:16;;;;;;;213.82;169.85;;;20.70;53.60;;;;;;4368222;60;21036;-34
2021/12/30 22:13:18;;;;;;;211.23;165.95;;;20.70;53.60;;;;;;4338704;64;21056;-35
2021/12/30 22:18:18;;;;;;;211.77;165.40;;;20.70;53.50;;;;;;4346724;60;21119;-34
2021/12/30 22:23:24;;;;;;;211.65;164.93;;;20.70;53.50;;;;;;4339444;60;21063;-34
2021/12/30 22:28:25;;;;;;;210.38;164.27;;;20.70;53.40;;;;;;4355658;60;22038;-34
2021/12/30 22:33:27;;;;;;;212.48;167.40;;;20.70;53.40;;;;;;4352270;60;21143;-32
2021/12/30 22:38:29;;;;;;;213.75;166.73;;;20.70;53.40;;;;;;4366882;60;21070;-35
2021/12/30 22:43:30;;;;;;;203.98;157.90;;;20.70;53.40;;;;;;4351932;60;21099;-33
2021/12/30 22:48:31;;;;;;;209.02;159.85;;;20.70;53.30;;;;;;4355809;60;21853;-33
2021/12/30 22:53:33;;;;;;;209.75;161.60;;;20.70;53.30;;;;;;4353605;60;22017;-34
2021/12/30 22:58:37;;;;;;;210.38;164.30;;;20.70;53.20;;;;;;4338859;64;21056;-34
2021/12/30 23:03:39;;;;;;;214.18;168.52;;;20.70;53.20;;;;;;4348523;60;21133;-34
2021/12/30 23:08:40;;;;;;;201.27;155.45;;;20.70;53.10;;;;;;4340428;60;21127;-33
2021/12/30 23:13:41;;;;;;;204.87;159.45;;;20.70;53.10;;;;;;4347071;60;21541;-34
2021/12/30 23:18:42;;;;;;;199.80;154.27;;;20.70;53.10;;;;;;4338307;64;21079;-35
2021/12/30 23:23:43;;;;;;;203.32;154.95;;;20.70;53.00;;;;;;4354533;60;21067;-35
2021/12/30 23:28:44;;;;;;;195.60;151.65;;;20.70;53.00;;;;;;4347086;60;21052;-31
2021/12/30 23:33:45;;;;;;;199.82;152.80;;;20.70;52.90;;;;;;4348807;60;21522;-36
2021/12/30 23:38:46;;;;;;;199.98;155.15;;;20.70;52.90;;;;;;4348208;60;21063;-36
2021/12/30 23:43:46;;;;;;;196.90;152.50;;;20.70;52.90;;;;;;4338311;64;21105;-35
2021/12/30 23:48:47;;;;;;;196.55;151.10;;;20.70;52.80;;;;;;4351284;60;21526;-36
2021/12/30 23:53:48;;;;;;;194.48;151.75;;;20.70;52.80;;;;;;4339122;61;21067;-32
2021/12/30 23:58:49;;;;;;;202.00;152.20;;;20.70;52.70;;;;;;4350292;60;21126;-26
